Time;durP1;ratioP1;P1;durP2;ratioP2;P2;SDS_P1;SDS_P2;PMS_P1;PMS_P2;Temp;Humidity;BMP_temperature;BMP_pressure;BME280_temperature;BME280_humidity;BME280_pressure;Samples;Min_cycle;Max_cycle;Signal;HPM_P1;HPM_P2
2021/06/07 00:00:01;;;;;;;15.65;5.70;;;23.40;32.50;;;;;;1045330;28;20435;-73
2021/06/07 00:00:32;;;;;;;16.55;5.65;;;23.40;32.60;;;;;;1048676;28;20066;-75
2021/06/07 00:01:08;;;;;;;18.92;5.90;;;23.30;32.20;;;;;;1049050;28;20020;-74
2021/06/07 00:01:45;;;;;;;17.95;5.65;;;23.40;32.20;;;;;;1048875;28;20117;-74
2021/06/07 00:02:17;;;;;;;17.60;6.18;;;23.30;32.20;;;;;;1051164;28;20470;-74
2021/06/07 00:02:49;;;;;;;18.45;6.28;;;23.30;32.20;;;;;;1050884;28;20484;-74
2021/06/07 00:03:21;;;;;;;22.55;6.00;;;23.40;32.20;;;;;;1046313;28;20096;-74
2021/06/07 00:03:52;;;;;;;14.02;5.53;;;23.40;31.90;;;;;;1042184;28;20024;-73
2021/06/07 00:04:26;;;;;;;17.83;5.72;;;23.30;32.10;;;;;;1041143;28;20014;-74
2021/06/07 00:04:57;;;;;;;17.05;5.95;;;23.30;32.10;;;;;;1042472;28;20045;-74
2021/06/07 00:05:30;;;;;;;18.58;5.90;;;23.30;31.70;;;;;;1044574;28;20340;-75
2021/06/07 00:06:02;;;;;;;19.42;5.53;;;23.20;32.00;;;;;;1045414;28;20024;-74
2021/06/07 00:06:33;;;;;;;19.10;5.68;;;23.20;32.10;;;;;;1044509;28;20472;-74
2021/06/07 00:07:08;;;;;;;16.60;5.63;;;23.20;32.10;;;;;;1045295;28;20009;-75
2021/06/07 00:07:39;;;;;;;20.25;5.80;;;23.20;32.20;;;;;;1045559;28;20021;-74
2021/06/07 00:08:11;;;;;;;19.00;5.82;;;23.20;32.40;;;;;;1049602;28;20460;-74
2021/06/07 00:08:43;;;;;;;16.60;5.30;;;23.20;32.10;;;;;;1048507;28;20151;-74
2021/06/07 00:09:16;;;;;;;19.15;5.88;;;23.20;32.10;;;;;;1049342;28;20017;-74
2021/06/07 00:09:47;;;;;;;19.90;6.10;;;23.20;32.20;;;;;;1053005;28;20042;-74
2021/06/07 00:10:20;;;;;;;17.00;5.68;;;23.20;32.20;;;;;;1052882;28;20008;-74
2021/06/07 00:10:52;;;;;;;20.35;5.53;;;23.20;31.80;;;;;;1053414;28;20001;-74
2021/06/07 00:11:24;;;;;;;20.27;5.90;;;23.20;32.00;;;;;;1053871;28;20024;-74
2021/06/07 00:11:59;;;;;;;20.17;5.93;;;23.20;32.10;;;;;;1053052;28;20020;-74
2021/06/07 00:12:31;;;;;;;19.55;5.68;;;23.20;31.70;;;;;;1053132;28;20008;-73
2021/06/07 00:13:03;;;;;;;20.70;6.10;;;23.20;31.80;;;;;;1053192;28;20013;-75
2021/06/07 00:13:36;;;;;;;17.40;5.97;;;23.20;32.20;;;;;;1053167;28;20087;-74
2021/06/07 00:14:08;;;;;;;22.60;5.82;;;23.20;32.30;;;;;;1053153;28;20023;-74
2021/06/07 00:14:40;;;;;;;19.20;5.72;;;23.20;32.30;;;;;;1053121;28;20016;-74
2021/06/07 00:15:15;;;;;;;16.65;5.35;;;23.20;31.70;;;;;;1053111;28;20113;-73
2021/06/07 00:15:47;;;;;;;18.10;5.63;;;23.20;32.10;;;;;;1053131;28;20008;-73
2021/06/07 00:16:19;;;;;;;22.40;5.88;;;23.20;31.80;;;;;;1053098;28;20425;-76
2021/06/07 00:16:50;;;;;;;18.25;5.53;;;23.20;31.50;;;;;;1052763;28;20020;-74
2021/06/07 00:17:22;;;;;;;16.83;5.80;;;23.20;31.60;;;;;;1048519;28;20013;-73
2021/06/07 00:17:54;;;;;;;18.25;5.38;;;23.20;31.50;;;;;;1044377;28;20062;-74
2021/06/07 00:18:26;;;;;;;18.48;5.60;;;23.20;31.60;;;;;;1045125;28;20045;-74
2021/06/07 00:18:58;;;;;;;15.77;5.68;;;23.20;31.90;;;;;;1044278;28;20477;-74
2021/06/07 00:19:32;;;;;;;19.75;5.78;;;23.20;32.30;;;;;;1045288;28;20008;-74
2021/06/07 00:20:10;;;;;;;20.40;6.63;;;23.20;32.90;;;;;;1044275;28;20082;-74
2021/06/07 00:20:46;;;;;;;16.98;5.95;;;23.20;33.50;;;;;;1046428;28;20009;-74
2021/06/07 00:21:22;;;;;;;19.17;5.53;;;23.20;33.60;;;;;;1048652;28;20035;-75
2021/06/07 00:21:54;;;;;;;18.45;5.45;;;23.20;32.40;;;;;;1048553;28;20066;-75
2021/06/07 00:22:26;;;;;;;17.42;5.65;;;23.20;31.90;;;;;;1048599;28;20078;-74
2021/06/07 00:22:58;;;;;;;15.20;5.43;;;23.20;32.00;;;;;;1047327;28;20024;-73
2021/06/07 00:23:29;;;;;;;17.33;5.82;;;23.20;32.00;;;;;;1045168;28;20014;-74
2021/06/07 00:24:01;;;;;;;21.65;5.70;;;23.20;32.10;;;;;;1044294;28;20450;-74
2021/06/07 00:24:33;;;;;;;22.75;6.00;;;23.20;32.40;;;;;;1040946;28;20009;-74
2021/06/07 00:25:07;;;;;;;20.70;5.93;;;23.20;32.20;;;;;;1044564;28;20021;-74
2021/06/07 00:25:40;;;;;;;24.38;6.63;;;23.20;32.40;;;;;;1045440;28;20017;-74
2021/06/07 00:26:12;;;;;;;16.05;5.35;;;23.20;32.60;;;;;;1049624;28;20040;-73
2021/06/07 00:26:43;;;;;;;23.15;5.90;;;23.10;32.30;;;;;;1053031;28;20107;-74
2021/06/07 00:27:15;;;;;;;17.33;5.22;;;23.20;32.10;;;;;;1052952;28;20008;-73
2021/06/07 00:27:46;;;;;;;21.60;6.00;;;23.20;32.10;;;;;;1052463;28;20099;-73
2021/06/07 00:28:18;;;;;;;20.08;5.90;;;23.20;32.50;;;;;;1048871;28;20017;-74
2021/06/07 00:28:50;;;;;;;19.48;6.32;;;23.20;32.70;;;;;;1048994;28;20012;-75
2021/06/07 00:29:22;;;;;;;18.63;6.25;;;23.20;33.00;;;;;;1048450;28;20074;-73
2021/06/07 00:29:53;;;;;;;17.42;5.90;;;23.20;33.30;;;;;;1048615;28;20013;-74
2021/06/07 00:30:25;;;;;;;23.90;6.30;;;23.20;33.20;;;;;;1048563;28;20017;-75
2021/06/07 00:30:57;;;;;;;17.33;6.00;;;23.20;33.20;;;;;;1049430;28;20012;-74
2021/06/07 00:31:28;;;;;;;22.10;6.57;;;23.30;32.90;;;;;;1048608;28;20025;-74
2021/06/07 00:32:00;;;;;;;18.35;5.90;;;23.20;33.20;;;;;;1048640;28;20036;-74
2021/06/07 00:32:31;;;;;;;20.13;5.80;;;23.30;32.80;;;;;;1048676;28;20009;-74
2021/06/07 00:33:03;;;;;;;19.30;5.97;;;23.20;32.90;;;;;;1044968;28;20068;-74
2021/06/07 00:33:35;;;;;;;18.45;5.68;;;23.30;33.10;;;;;;1048564;28;20024;-74
2021/06/07 00:34:08;;;;;;;18.92;6.18;;;23.30;32.40;;;;;;1044420;28;20021;-74
2021/06/07 00:34:39;;;;;;;20.50;5.63;;;23.30;32.40;;;;;;1045238;28;20096;-74
2021/06/07 00:35:12;;;;;;;16.05;5.30;;;23.30;32.60;;;;;;1047768;28;20017;-74
2021/06/07 00:35:43;;;;;;;20.17;6.60;;;23.30;32.60;;;;;;1041073;28;20424;-73
2021/06/07 00:36:20;;;;;;;18.52;6.03;;;23.30;32.90;;;;;;1044478;28;20074;-73
2021/06/07 00:36:52;;;;;;;18.00;5.80;;;23.30;33.00;;;;;;1045962;28;20039;-74
2021/06/07 00:37:23;;;;;;;19.70;6.20;;;23.20;32.60;;;;;;1048758;28;20009;-73
2021/06/07 00:37:55;;;;;;;17.67;5.80;;;23.20;32.10;;;;;;1048801;28;20005;-74
2021/06/07 00:38:27;;;;;;;16.33;5.65;;;23.30;31.80;;;;;;1048930;28;20005;-75
2021/06/07 00:38:58;;;;;;;20.73;5.90;;;23.30;32.00;;;;;;1048510;28;20012;-74
2021/06/07 00:39:30;;;;;;;18.88;5.85;;;23.30;32.40;;;;;;1048572;28;20507;-75
2021/06/07 00:40:01;;;;;;;19.80;5.90;;;23.30;32.20;;;;;;1048650;28;20019;-74
2021/06/07 00:40:33;;;;;;;18.83;5.85;;;23.30;32.20;;;;;;1048733;28;20012;-74
2021/06/07 00:41:08;;;;;;;24.50;6.22;;;23.30;32.30;;;;;;1048871;28;20063;-74
2021/06/07 00:41:41;;;;;;;18.67;5.88;;;23.30;32.50;;;;;;1048911;28;20023;-74
2021/06/07 00:42:13;;;;;;;18.27;5.90;;;23.30;32.50;;;;;;1048767;28;20013;-75
2021/06/07 00:42:45;;;;;;;18.38;5.95;;;23.30;32.00;;;;;;1048942;28;20343;-73
2021/06/07 00:43:16;;;;;;;18.17;5.63;;;23.30;31.70;;;;;;1048887;28;20033;-74
2021/06/07 00:44:00;;;;;;;18.27;5.43;;;23.30;31.60;;;;;;1048860;28;20024;-74
2021/06/07 00:44:32;;;;;;;18.20;5.70;;;23.30;31.70;;;;;;1048551;28;20020;-74
2021/06/07 00:45:13;;;;;;;18.17;6.20;;;23.30;31.90;;;;;;1048792;28;20028;-74
2021/06/07 00:45:45;;;;;;;20.77;6.13;;;23.30;32.40;;;;;;1048629;28;20021;-74
2021/06/07 00:46:16;;;;;;;17.40;5.65;;;23.20;32.60;;;;;;1050358;28;20116;-73
2021/06/07 00:46:48;;;;;;;20.10;6.15;;;23.30;33.10;;;;;;1048522;28;20028;-74
2021/06/07 00:47:21;;;;;;;16.40;6.10;;;23.30;33.30;;;;;;1043419;28;20056;-75
2021/06/07 00:47:54;;;;;;;17.30;5.82;;;23.30;33.70;;;;;;1039177;28;20025;-74
2021/06/07 00:48:27;;;;;;;20.02;5.97;;;23.30;33.20;;;;;;1041974;28;20014;-74
2021/06/07 00:48:59;;;;;;;16.17;5.55;;;23.30;33.00;;;;;;1045580;28;20068;-74
2021/06/07 00:49:31;;;;;;;18.45;5.97;;;23.30;33.00;;;;;;1048672;28;20085;-73
2021/06/07 00:50:07;;;;;;;18.85;5.75;;;23.40;32.20;;;;;;1048669;28;20048;-73
2021/06/07 00:50:43;;;;;;;17.73;5.88;;;23.40;32.30;;;;;;1048928;28;20020;-74
2021/06/07 00:51:14;;;;;;;24.23;6.22;;;23.40;32.40;;;;;;1048509;28;20032;-74
2021/06/07 00:51:47;;;;;;;21.58;6.57;;;23.30;32.90;;;;;;1049905;28;20017;-74
2021/06/07 00:52:18;;;;;;;22.65;6.35;;;23.30;33.30;;;;;;1049942;28;20016;-73
2021/06/07 00:53:03;;;;;;;19.80;6.38;;;23.40;33.60;;;;;;1047286;28;20021;-74
2021/06/07 00:53:35;;;;;;;17.75;6.00;;;23.30;33.10;;;;;;1048687;28;20024;-74
2021/06/07 00:54:07;;;;;;;22.05;6.25;;;23.40;33.00;;;;;;1048636;28;20024;-73
2021/06/07 00:54:39;;;;;;;19.85;6.45;;;23.30;33.10;;;;;;1048611;28;20028;-73
2021/06/07 00:55:11;;;;;;;21.08;6.35;;;23.40;33.10;;;;;;1048640;28;20134;-74
2021/06/07 00:55:49;;;;;;;19.88;6.38;;;23.40;32.80;;;;;;1044433;28;20551;-74
2021/06/07 00:56:20;;;;;;;20.65;5.55;;;23.30;32.70;;;;;;1045841;28;20013;-74
2021/06/07 00:56:51;;;;;;;20.67;6.13;;;23.30;32.90;;;;;;1044449;28;20028;-74
2021/06/07 00:57:23;;;;;;;18.33;5.68;;;23.30;33.10;;;;;;1040314;28;20061;-74
2021/06/07 00:57:55;;;;;;;21.02;5.70;;;23.30;32.40;;;;;;1040687;28;20022;-73
2021/06/07 00:58:38;;;;;;;19.67;6.65;;;23.40;32.70;;;;;;1044897;28;20040;-76
2021/06/07 00:59:10;;;;;;;18.65;5.75;;;23.40;32.70;;;;;;1044402;28;20017;-74
2021/06/07 00:59:41;;;;;;;18.77;6.13;;;23.40;32.80;;;;;;1044378;28;20439;-74
2021/06/07 01:00:14;;;;;;;22.77;6.03;;;23.40;33.10;;;;;;1046543;28;20021;-73
2021/06/07 01:00:46;;;;;;;21.67;6.18;;;23.30;33.20;;;;;;1048561;28;20032;-73
2021/06/07 01:01:22;;;;;;;22.48;6.30;;;23.30;33.50;;;;;;1052666;28;20024;-74
2021/06/07 01:01:54;;;;;;;21.25;6.35;;;23.30;33.60;;;;;;1052663;28;20016;-73
2021/06/07 01:02:25;;;;;;;23.60;6.45;;;23.30;33.50;;;;;;1052703;28;20016;-74
2021/06/07 01:02:58;;;;;;;19.33;5.93;;;23.30;33.40;;;;;;1052016;28;20030;-74
2021/06/07 01:03:31;;;;;;;19.10;5.90;;;23.30;33.20;;;;;;1045148;28;20451;-73
2021/06/07 01:04:03;;;;;;;22.88;5.95;;;23.30;33.20;;;;;;1045921;28;20017;-74
2021/06/07 01:04:34;;;;;;;17.05;6.03;;;23.30;33.30;;;;;;1045184;28;20035;-74
2021/06/07 01:05:06;;;;;;;20.00;6.50;;;23.30;34.00;;;;;;1045855;28;20454;-74
2021/06/07 01:05:38;;;;;;;21.88;7.05;;;23.30;34.60;;;;;;1049382;28;20081;-74
2021/06/07 01:06:10;;;;;;;22.75;7.25;;;23.30;35.30;;;;;;1049226;28;20016;-73
2021/06/07 01:06:41;;;;;;;29.38;7.97;;;23.20;35.90;;;;;;1049375;28;20048;-74
2021/06/07 01:07:13;;;;;;;23.20;7.60;;;23.30;36.80;;;;;;1049379;28;20469;-74
2021/06/07 01:07:45;;;;;;;22.92;7.53;;;23.20;35.50;;;;;;1049354;28;20013;-75
2021/06/07 01:08:17;;;;;;;26.45;6.90;;;23.20;35.70;;;;;;1049479;28;20529;-73
2021/06/07 01:08:48;;;;;;;24.88;7.10;;;23.20;35.70;;;;;;1049586;28;20343;-74
2021/06/07 01:09:20;;;;;;;24.80;7.72;;;23.10;36.10;;;;;;1049566;28;20028;-73
2021/06/07 01:09:51;;;;;;;26.40;7.95;;;23.10;36.40;;;;;;1049381;28;20055;-73
2021/06/07 01:10:24;;;;;;;26.55;7.60;;;23.10;36.60;;;;;;1049565;28;20020;-74
2021/06/07 01:10:56;;;;;;;23.92;7.85;;;23.10;36.90;;;;;;1049564;28;20021;-74
2021/06/07 01:11:27;;;;;;;27.27;8.23;;;23.00;37.30;;;;;;1049555;28;20350;-74
2021/06/07 01:11:59;;;;;;;28.88;8.35;;;23.00;37.40;;;;;;1049152;28;20016;-74
2021/06/07 01:12:30;;;;;;;25.08;8.23;;;22.90;37.40;;;;;;1049354;28;20024;-74
2021/06/07 01:13:02;;;;;;;22.95;7.80;;;22.90;37.60;;;;;;1049232;28;20025;-75
2021/06/07 01:13:34;;;;;;;28.25;7.80;;;22.80;37.50;;;;;;1049250;28;20115;-74
2021/06/07 01:14:07;;;;;;;29.08;8.18;;;22.70;37.50;;;;;;1044994;28;20035;-75
2021/06/07 01:14:38;;;;;;;26.05;8.35;;;22.70;37.80;;;;;;1045132;28;20099;-75
2021/06/07 01:15:11;;;;;;;24.08;7.70;;;22.70;38.10;;;;;;1045045;28;20075;-76
2021/06/07 01:15:44;;;;;;;29.63;8.10;;;22.60;38.20;;;;;;1041831;28;20430;-75
2021/06/07 01:16:15;;;;;;;29.80;8.63;;;22.60;38.30;;;;;;1040996;28;20112;-75
2021/06/07 01:16:47;;;;;;;33.40;8.88;;;22.50;38.30;;;;;;1043446;28;20021;-75
2021/06/07 01:17:18;;;;;;;25.63;7.78;;;22.50;38.50;;;;;;1049995;28;20028;-74
2021/06/07 01:17:50;;;;;;;29.02;8.40;;;22.40;38.60;;;;;;1048796;28;20021;-74
2021/06/07 01:18:23;;;;;;;32.08;8.30;;;22.40;38.70;;;;;;1045782;28;20188;-75
2021/06/07 01:18:54;;;;;;;23.10;7.60;;;22.40;38.80;;;;;;1047775;28;20017;-76
2021/06/07 01:19:27;;;;;;;25.80;7.70;;;22.40;38.80;;;;;;1043810;28;20071;-75
2021/06/07 01:19:59;;;;;;;39.67;8.68;;;22.40;38.30;;;;;;1045046;28;20427;-75
2021/06/07 01:20:31;;;;;;;32.10;8.25;;;22.30;38.30;;;;;;1045964;28;20048;-74
2021/06/07 01:21:14;;;;;;;31.10;7.88;;;22.40;38.40;;;;;;1049390;28;20389;-74
2021/06/07 01:21:45;;;;;;;30.50;7.95;;;22.30;38.60;;;;;;1049042;28;20115;-76
2021/06/07 01:22:17;;;;;;;28.90;8.10;;;22.20;39.30;;;;;;1045044;28;20049;-76
2021/06/07 01:22:50;;;;;;;30.63;8.02;;;22.20;38.60;;;;;;1045204;28;20013;-74
2021/06/07 01:23:22;;;;;;;25.65;7.82;;;22.20;38.70;;;;;;1048414;28;20016;-75
2021/06/07 01:23:55;;;;;;;28.40;7.63;;;22.10;38.80;;;;;;1050589;28;20092;-74
2021/06/07 01:24:27;;;;;;;24.58;7.68;;;22.10;39.00;;;;;;1052042;28;20028;-75
2021/06/07 01:24:58;;;;;;;29.85;7.57;;;22.10;39.20;;;;;;1051777;28;20027;-74
2021/06/07 01:25:34;;;;;;;31.20;8.07;;;22.00;39.40;;;;;;1046987;28;20449;-77
2021/06/07 01:26:07;;;;;;;27.70;7.55;;;22.00;39.50;;;;;;1045107;28;20347;-75
2021/06/07 01:26:38;;;;;;;26.17;7.93;;;22.00;39.60;;;;;;1040962;28;20022;-75
2021/06/07 01:27:10;;;;;;;23.83;7.72;;;22.00;39.70;;;;;;1042434;28;20018;-77
2021/06/07 01:27:41;;;;;;;32.42;8.40;;;22.00;39.70;;;;;;1045872;28;20316;-75
2021/06/07 01:28:16;;;;;;;24.52;7.57;;;21.90;39.80;;;;;;1045576;28;20059;-75
2021/06/07 01:28:49;;;;;;;30.70;8.05;;;21.90;39.90;;;;;;1049347;28;20100;-75
2021/06/07 01:29:21;;;;;;;26.00;8.35;;;21.80;40.00;;;;;;1049260;28;20052;-77
2021/06/07 01:29:52;;;;;;;28.83;8.05;;;21.80;40.20;;;;;;1049384;28;20025;-74
2021/06/07 01:30:29;;;;;;;34.45;8.68;;;21.80;40.30;;;;;;1049099;28;20417;-74
2021/06/07 01:31:02;;;;;;;27.90;8.15;;;21.80;40.50;;;;;;1049388;28;20024;-75
2021/06/07 01:31:33;;;;;;;31.63;8.23;;;21.70;40.50;;;;;;1049151;28;20031;-74
2021/06/07 01:32:06;;;;;;;27.80;8.57;;;21.70;40.60;;;;;;1045113;28;20021;-75
2021/06/07 01:32:37;;;;;;;31.67;8.13;;;21.60;40.80;;;;;;1045163;28;20106;-75
2021/06/07 01:33:11;;;;;;;27.67;7.43;;;21.60;41.00;;;;;;1047985;28;20048;-76
2021/06/07 01:33:46;;;;;;;32.80;8.73;;;21.60;41.10;;;;;;1053496;28;20395;-75
2021/06/07 01:34:17;;;;;;;29.90;8.10;;;21.60;41.20;;;;;;1053708;28;20020;-75
2021/06/07 01:34:49;;;;;;;26.73;8.45;;;21.50;41.00;;;;;;1052748;28;20056;-76
2021/06/07 01:35:21;;;;;;;32.47;7.72;;;21.50;41.10;;;;;;1045133;28;20035;-77
2021/06/07 01:35:55;;;;;;;29.80;8.00;;;21.40;41.10;;;;;;1044968;28;20074;-76
2021/06/07 01:36:26;;;;;;;30.13;8.05;;;21.40;41.10;;;;;;1046171;28;20458;-75
2021/06/07 01:36:58;;;;;;;36.28;8.88;;;21.30;41.30;;;;;;1049421;28;20030;-76
2021/06/07 01:37:29;;;;;;;30.30;8.30;;;21.30;41.50;;;;;;1049145;28;20039;-75
2021/06/07 01:38:02;;;;;;;26.98;7.82;;;21.20;41.50;;;;;;1044870;28;20028;-75
2021/06/07 01:38:34;;;;;;;30.23;8.07;;;21.20;41.80;;;;;;1044871;28;20028;-75
2021/06/07 01:39:06;;;;;;;33.35;8.32;;;21.10;42.00;;;;;;1042712;28;20030;-75
2021/06/07 01:39:37;;;;;;;28.33;8.02;;;21.10;42.20;;;;;;1045708;28;20017;-75
2021/06/07 01:40:18;;;;;;;36.58;9.20;;;21.10;42.30;;;;;;1049149;28;20035;-76
2021/06/07 01:40:52;;;;;;;31.48;9.18;;;21.00;42.40;;;;;;1046760;28;20134;-75
2021/06/07 01:41:25;;;;;;;31.70;9.00;;;21.00;42.50;;;;;;1048760;28;20175;-75
2021/06/07 01:41:57;;;;;;;31.55;8.75;;;21.00;42.70;;;;;;1049105;28;20085;-75
2021/06/07 01:42:28;;;;;;;29.75;8.52;;;20.90;42.80;;;;;;1045448;28;20182;-74
2021/06/07 01:43:00;;;;;;;34.50;8.68;;;20.90;43.40;;;;;;1047390;28;20405;-76
2021/06/07 01:43:34;;;;;;;28.88;8.10;;;20.90;42.90;;;;;;1053432;28;20028;-74
2021/06/07 01:44:06;;;;;;;30.95;8.55;;;20.90;42.90;;;;;;1052943;28;20104;-76
2021/06/07 01:44:37;;;;;;;30.23;8.20;;;20.90;42.80;;;;;;1049289;28;20035;-75
2021/06/07 01:45:12;;;;;;;29.05;8.63;;;20.80;43.00;;;;;;1049417;28;20460;-75
2021/06/07 01:45:45;;;;;;;33.47;9.25;;;20.70;43.00;;;;;;1049221;28;20020;-77
2021/06/07 01:46:17;;;;;;;32.50;8.45;;;20.70;43.30;;;;;;1049125;28;20120;-77
2021/06/07 01:46:49;;;;;;;26.92;8.07;;;20.60;43.30;;;;;;1049184;28;20016;-74
2021/06/07 01:47:21;;;;;;;31.70;8.88;;;20.60;43.10;;;;;;1049095;28;20423;-74
2021/06/07 01:47:53;;;;;;;33.55;8.27;;;20.60;43.20;;;;;;1047884;28;20020;-77
2021/06/07 01:48:25;;;;;;;29.00;8.60;;;20.60;43.30;;;;;;1045170;28;20024;-75
2021/06/07 01:48:57;;;;;;;32.88;8.25;;;20.60;43.40;;;;;;1045839;28;20473;-74
2021/06/07 01:49:28;;;;;;;32.47;8.38;;;20.60;43.40;;;;;;1049238;28;20019;-74
2021/06/07 01:50:00;;;;;;;29.98;8.18;;;20.50;43.60;;;;;;1049340;28;20455;-74
2021/06/07 01:50:32;;;;;;;32.85;8.50;;;20.50;43.90;;;;;;1049259;28;20047;-75
2021/06/07 01:51:06;;;;;;;36.30;9.23;;;20.40;44.00;;;;;;1049057;28;20031;-74
2021/06/07 01:51:38;;;;;;;34.22;8.70;;;20.40;44.20;;;;;;1044916;28;20021;-74
2021/06/07 01:52:09;;;;;;;30.05;8.05;;;20.30;44.10;;;;;;1044928;28;20163;-74
2021/06/07 01:52:44;;;;;;;31.67;8.88;;;20.30;44.30;;;;;;1044937;28;20021;-74
2021/06/07 01:53:18;;;;;;;30.30;8.40;;;20.20;44.40;;;;;;1045062;28;20469;-75
2021/06/07 01:53:50;;;;;;;28.52;8.48;;;20.20;44.30;;;;;;1050087;28;20469;-74
2021/06/07 01:54:21;;;;;;;31.85;9.00;;;20.20;44.50;;;;;;1050082;28;20024;-77
2021/06/07 01:54:52;;;;;;;31.85;8.30;;;20.10;44.60;;;;;;1049745;28;20028;-74
2021/06/07 01:55:31;;;;;;;32.47;8.38;;;20.10;44.60;;;;;;1052231;28;20070;-75
2021/06/07 01:56:06;;;;;;;33.22;8.20;;;20.00;44.70;;;;;;1049373;28;20059;-77
2021/06/07 01:56:38;;;;;;;35.22;8.98;;;20.00;44.80;;;;;;1051471;28;20024;-76
2021/06/07 01:57:09;;;;;;;36.63;9.05;;;20.00;44.90;;;;;;1052805;28;20388;-75
2021/06/07 01:57:42;;;;;;;29.85;8.05;;;20.00;45.00;;;;;;1051190;28;20111;-74
2021/06/07 01:58:15;;;;;;;32.03;8.90;;;19.90;45.00;;;;;;1051543;28;20031;-74
2021/06/07 01:58:47;;;;;;;30.17;8.93;;;19.90;45.30;;;;;;1052861;28;20028;-75
2021/06/07 01:59:18;;;;;;;31.08;8.27;;;19.80;45.30;;;;;;1044928;28;20036;-74
2021/06/07 01:59:50;;;;;;;32.95;9.18;;;19.80;45.40;;;;;;1045085;28;20365;-74
2021/06/07 02:00:32;;;;;;;37.90;8.82;;;19.80;45.60;;;;;;1045370;28;20021;-74
2021/06/07 02:01:19;;;;;;;33.20;8.75;;;19.80;45.70;;;;;;1049244;28;20095;-75
2021/06/07 02:01:54;;;;;;;36.80;8.63;;;19.70;45.90;;;;;;1049239;28;20058;-74
2021/06/07 02:02:25;;;;;;;33.83;8.90;;;19.70;45.90;;;;;;1049381;28;20492;-74
2021/06/07 02:02:56;;;;;;;31.33;8.65;;;19.60;46.00;;;;;;1049057;28;20020;-75
2021/06/07 02:03:28;;;;;;;34.50;8.50;;;19.60;46.20;;;;;;1049048;28;20020;-74
2021/06/07 02:03:59;;;;;;;33.05;9.15;;;19.60;46.30;;;;;;1051714;28;20070;-76
2021/06/07 02:04:31;;;;;;;32.58;8.63;;;19.50;46.30;;;;;;1053130;28;20031;-75
2021/06/07 02:05:05;;;;;;;29.92;8.93;;;19.50;46.10;;;;;;1052788;28;20079;-74
2021/06/07 02:05:39;;;;;;;35.42;8.63;;;19.50;45.90;;;;;;1053378;28;20046;-74
2021/06/07 02:06:16;;;;;;;29.65;7.70;;;19.50;45.70;;;;;;1049914;28;20035;-77
2021/06/07 02:06:48;;;;;;;37.90;9.02;;;19.40;45.90;;;;;;1053245;28;20066;-75
2021/06/07 02:07:19;;;;;;;36.33;8.60;;;19.50;46.50;;;;;;1053352;28;20031;-75
2021/06/07 02:07:52;;;;;;;34.42;8.88;;;19.40;46.60;;;;;;1053403;28;20426;-75
2021/06/07 02:08:24;;;;;;;33.92;8.48;;;19.40;46.80;;;;;;1053477;28;20043;-75
2021/06/07 02:08:56;;;;;;;36.83;8.35;;;19.30;46.90;;;;;;1053547;28;20112;-74
2021/06/07 02:09:28;;;;;;;35.97;9.45;;;19.30;47.10;;;;;;1053622;28;20008;-74
2021/06/07 02:09:59;;;;;;;40.38;9.50;;;19.30;47.30;;;;;;1053550;28;20020;-75
2021/06/07 02:10:34;;;;;;;35.17;8.68;;;19.20;47.40;;;;;;1053173;28;20331;-75
2021/06/07 02:11:22;;;;;;;33.67;8.38;;;19.20;47.50;;;;;;1053287;28;20067;-74
2021/06/07 02:11:53;;;;;;;32.20;8.50;;;19.20;47.60;;;;;;1049055;28;20127;-74
2021/06/07 02:12:25;;;;;;;32.10;8.85;;;19.20;47.50;;;;;;1048312;28;20036;-74
2021/06/07 02:12:56;;;;;;;31.85;8.80;;;19.10;47.50;;;;;;1049184;28;20332;-74
2021/06/07 02:13:28;;;;;;;36.60;9.27;;;19.10;47.50;;;;;;1049150;28;20013;-75
2021/06/07 02:14:03;;;;;;;31.08;7.82;;;19.10;47.30;;;;;;1052998;28;20120;-74
2021/06/07 02:14:35;;;;;;;29.98;8.68;;;19.00;47.20;;;;;;1049016;28;20465;-75
2021/06/07 02:15:08;;;;;;;31.67;8.23;;;19.10;47.30;;;;;;1049103;28;20025;-76
2021/06/07 02:15:41;;;;;;;35.40;8.68;;;19.10;47.40;;;;;;1049878;28;20028;-74
2021/06/07 02:16:18;;;;;;;32.97;8.52;;;19.10;47.30;;;;;;1053233;28;20016;-74
2021/06/07 02:16:49;;;;;;;34.10;8.15;;;19.00;47.30;;;;;;1048957;28;20068;-74
2021/06/07 02:17:21;;;;;;;32.92;8.85;;;19.00;47.50;;;;;;1049827;28;20111;-75
2021/06/07 02:17:52;;;;;;;26.48;7.72;;;19.00;47.10;;;;;;1053255;28;20012;-75
2021/06/07 02:18:24;;;;;;;31.92;7.93;;;19.00;46.90;;;;;;1053326;28;20388;-74
2021/06/07 02:18:56;;;;;;;29.63;8.38;;;19.00;47.00;;;;;;1053530;28;20437;-74
2021/06/07 02:19:27;;;;;;;30.92;8.77;;;19.00;47.10;;;;;;1054537;28;20020;-74
2021/06/07 02:19:58;;;;;;;28.65;7.53;;;19.00;47.10;;;;;;1053041;28;20020;-75
2021/06/07 02:20:30;;;;;;;27.90;8.32;;;19.00;46.60;;;;;;1049035;28;20016;-75
2021/06/07 02:21:02;;;;;;;30.40;8.57;;;19.00;47.00;;;;;;1048983;28;20024;-78
2021/06/07 02:21:36;;;;;;;32.45;8.15;;;19.00;47.10;;;;;;1049617;28;20021;-74
2021/06/07 02:22:07;;;;;;;38.03;9.07;;;19.00;47.30;;;;;;1048999;28;20126;-76
2021/06/07 02:22:40;;;;;;;35.83;8.45;;;18.90;47.30;;;;;;1044884;28;20021;-76
2021/06/07 02:23:12;;;;;;;32.95;8.60;;;19.00;47.30;;;;;;1045741;28;20037;-75
2021/06/07 02:23:43;;;;;;;31.67;8.30;;;19.00;47.40;;;;;;1049014;28;20111;-76
2021/06/07 02:24:15;;;;;;;29.80;8.13;;;19.00;47.20;;;;;;1049007;28;20025;-75
2021/06/07 02:24:46;;;;;;;32.15;8.73;;;18.90;47.30;;;;;;1049081;28;20042;-74
2021/06/07 02:25:20;;;;;;;32.55;9.15;;;18.90;47.50;;;;;;1049135;28;20408;-74
2021/06/07 02:25:52;;;;;;;34.60;8.40;;;18.90;47.60;;;;;;1049239;28;20036;-74
2021/06/07 02:26:25;;;;;;;34.78;8.10;;;18.80;47.60;;;;;;1053131;28;20008;-75
2021/06/07 02:26:56;;;;;;;24.55;7.70;;;18.80;47.60;;;;;;1053221;28;20020;-76
2021/06/07 02:27:28;;;;;;;29.15;8.25;;;18.80;47.60;;;;;;1053183;28;20020;-75
2021/06/07 02:28:00;;;;;;;43.60;9.02;;;18.70;47.30;;;;;;1052434;28;20008;-76
2021/06/07 02:28:31;;;;;;;28.67;8.52;;;18.70;47.40;;;;;;1049145;28;20036;-74
2021/06/07 02:29:11;;;;;;;26.15;7.50;;;18.70;47.40;;;;;;1049159;28;20012;-74
2021/06/07 02:29:43;;;;;;;31.08;7.97;;;18.70;47.50;;;;;;1046608;28;20016;-75
2021/06/07 02:30:21;;;;;;;34.50;7.97;;;18.70;47.20;;;;;;1048989;28;20012;-75
2021/06/07 02:30:53;;;;;;;32.33;8.32;;;18.70;47.30;;;;;;1049139;28;20361;-75
2021/06/07 02:31:25;;;;;;;32.65;8.20;;;18.70;47.40;;;;;;1048982;28;20013;-74
2021/06/07 02:31:56;;;;;;;34.83;8.63;;;18.60;47.60;;;;;;1053029;28;20040;-75
2021/06/07 02:32:27;;;;;;;27.95;7.55;;;18.60;47.80;;;;;;1052586;28;20445;-74
2021/06/07 02:33:00;;;;;;;29.42;8.18;;;18.60;47.80;;;;;;1053204;28;20016;-75
2021/06/07 02:33:32;;;;;;;29.02;7.72;;;18.60;47.90;;;;;;1053071;28;20016;-75
2021/06/07 02:34:09;;;;;;;34.70;8.60;;;18.60;48.00;;;;;;1053198;28;20023;-74
2021/06/07 02:34:40;;;;;;;34.30;9.18;;;18.60;48.00;;;;;;1048899;28;20103;-75
2021/06/07 02:35:14;;;;;;;31.45;8.05;;;18.60;48.10;;;;;;1045985;28;20354;-76
2021/06/07 02:35:46;;;;;;;30.48;8.18;;;18.60;48.20;;;;;;1049040;28;20024;-75
2021/06/07 02:36:19;;;;;;;32.45;7.93;;;18.60;48.20;;;;;;1049900;28;20009;-74
2021/06/07 02:36:50;;;;;;;35.22;8.73;;;18.50;47.90;;;;;;1053270;28;20469;-74
2021/06/07 02:37:21;;;;;;;32.08;8.20;;;18.50;47.90;;;;;;1053457;28;20065;-75
2021/06/07 02:37:54;;;;;;;30.10;8.35;;;18.50;48.00;;;;;;1053234;28;20038;-74
2021/06/07 02:38:26;;;;;;;30.63;7.55;;;18.60;48.10;;;;;;1053043;28;20062;-74
2021/06/07 02:38:58;;;;;;;32.08;8.38;;;18.50;48.20;;;;;;1048945;28;20016;-75
2021/06/07 02:39:29;;;;;;;29.90;7.90;;;18.50;48.10;;;;;;1049094;28;20358;-75
2021/06/07 02:40:02;;;;;;;32.75;8.38;;;18.50;48.00;;;;;;1048946;28;20023;-74
2021/06/07 02:40:34;;;;;;;28.02;7.65;;;18.50;48.00;;;;;;1049301;28;20008;-74
2021/06/07 02:41:06;;;;;;;32.22;8.27;;;18.50;47.50;;;;;;1048876;28;20046;-74
2021/06/07 02:41:43;;;;;;;30.45;8.15;;;18.50;47.60;;;;;;1048879;28;20048;-74
2021/06/07 02:42:15;;;;;;;29.13;7.40;;;18.40;47.60;;;;;;1044745;28;20368;-74
2021/06/07 02:42:47;;;;;;;33.55;7.63;;;18.40;47.40;;;;;;1046259;28;20008;-75
2021/06/07 02:43:19;;;;;;;25.77;7.15;;;18.40;47.40;;;;;;1049074;28;20009;-75
2021/06/07 02:43:51;;;;;;;29.88;8.18;;;18.40;47.70;;;;;;1048953;28;20543;-76
2021/06/07 02:44:23;;;;;;;31.00;8.40;;;18.40;47.90;;;;;;1048789;28;20033;-75
2021/06/07 02:44:54;;;;;;;27.83;7.85;;;18.40;48.00;;;;;;1048972;28;20462;-74
2021/06/07 02:45:27;;;;;;;29.50;7.70;;;18.40;48.10;;;;;;1049164;28;20009;-74
2021/06/07 02:45:59;;;;;;;36.25;8.18;;;18.40;48.10;;;;;;1049017;28;20009;-74
2021/06/07 02:46:30;;;;;;;29.95;8.02;;;18.40;48.00;;;;;;1049052;28;20017;-74
2021/06/07 02:47:02;;;;;;;29.48;7.85;;;18.40;48.10;;;;;;1048775;28;20025;-74
2021/06/07 02:47:34;;;;;;;28.27;7.70;;;18.30;48.20;;;;;;1048994;28;20099;-74